sensor_id;sensor_type;location;lat;lon;timestamp;P1;durP1;ratioP1;P2;durP2;ratioP2
37609;SDS011;23457;51.966;8.230;2023-07-29T00:01:20;2.50;;;2.30;;
37609;SDS011;23457;51.966;8.230;2023-07-29T00:03:47;4.90;;;2.53;;
37609;SDS011;23457;51.966;8.230;2023-07-29T00:06:14;2.47;;;2.08;;
37609;SDS011;23457;51.966;8.230;2023-07-29T00:08:40;2.17;;;2.00;;
37609;SDS011;23457;51.966;8.230;2023-07-29T00:11:07;2.63;;;2.13;;
37609;SDS011;23457;51.966;8.230;2023-07-29T00:13:34;5.13;;;2.30;;
37609;SDS011;23457;51.966;8.230;2023-07-29T00:16:00;3.28;;;2.20;;
37609;SDS011;23457;51.966;8.230;2023-07-29T00:18:27;3.00;;;1.85;;
37609;SDS011;23457;51.966;8.230;2023-07-29T00:20:54;3.55;;;2.10;;
37609;SDS011;23457;51.966;8.230;2023-07-29T00:23:20;3.90;;;2.00;;
37609;SDS011;23457;51.966;8.230;2023-07-29T00:25:47;3.67;;;2.45;;
37609;SDS011;23457;51.966;8.230;2023-07-29T00:28:14;3.63;;;2.40;;
37609;SDS011;23457;51.966;8.230;2023-07-29T00:30:41;2.38;;;2.10;;
37609;SDS011;23457;51.966;8.230;2023-07-29T00:33:08;2.92;;;2.38;;
37609;SDS011;23457;51.966;8.230;2023-07-29T00:35:34;5.15;;;2.40;;
37609;SDS011;23457;51.966;8.230;2023-07-29T00:38:01;3.58;;;2.45;;
37609;SDS011;23457;51.966;8.230;2023-07-29T00:40:28;3.85;;;3.00;;
37609;SDS011;23457;51.966;8.230;2023-07-29T00:42:55;2.85;;;2.50;;
37609;SDS011;23457;51.966;8.230;2023-07-29T00:45:23;2.78;;;2.58;;
37609;SDS011;23457;51.966;8.230;2023-07-29T00:50:18;4.30;;;2.40;;
37609;SDS011;23457;51.966;8.230;2023-07-29T00:52:45;2.88;;;2.67;;
37609;SDS011;23457;51.966;8.230;2023-07-29T00:55:12;3.45;;;2.53;;
37609;SDS011;23457;51.966;8.230;2023-07-29T00:57:39;2.88;;;2.53;;
37609;SDS011;23457;51.966;8.230;2023-07-29T01:00:06;2.85;;;2.60;;
37609;SDS011;23457;51.966;8.230;2023-07-29T01:02:35;3.17;;;2.70;;
37609;SDS011;23457;51.966;8.230;2023-07-29T01:05:02;4.38;;;2.72;;
37609;SDS011;23457;51.966;8.230;2023-07-29T01:12:48;2.88;;;2.58;;
37609;SDS011;23457;51.966;8.230;2023-07-29T01:15:31;5.03;;;2.60;;
37609;SDS011;23457;51.966;8.230;2023-07-29T01:18:11;4.05;;;2.60;;
37609;SDS011;23457;51.966;8.230;2023-07-29T01:20:51;3.20;;;2.90;;
37609;SDS011;23457;51.966;8.230;2023-07-29T01:23:28;3.65;;;2.55;;
37609;SDS011;23457;51.966;8.230;2023-07-29T01:25:57;2.90;;;2.67;;
37609;SDS011;23457;51.966;8.230;2023-07-29T01:28:24;6.05;;;2.75;;
37609;SDS011;23457;51.966;8.230;2023-07-29T01:30:52;3.05;;;2.60;;
37609;SDS011;23457;51.966;8.230;2023-07-29T01:33:39;3.78;;;2.83;;
37609;SDS011;23457;51.966;8.230;2023-07-29T01:36:13;4.38;;;3.38;;
37609;SDS011;23457;51.966;8.230;2023-07-29T01:38:45;3.55;;;3.15;;
37609;SDS011;23457;51.966;8.230;2023-07-29T01:41:14;8.10;;;3.28;;
37609;SDS011;23457;51.966;8.230;2023-07-29T01:43:42;3.70;;;3.40;;
37609;SDS011;23457;51.966;8.230;2023-07-29T01:46:13;3.42;;;3.00;;
37609;SDS011;23457;51.966;8.230;2023-07-29T01:48:41;4.63;;;3.35;;
37609;SDS011;23457;51.966;8.230;2023-07-29T01:51:09;3.67;;;3.30;;
37609;SDS011;23457;51.966;8.230;2023-07-29T01:53:38;4.28;;;2.65;;
37609;SDS011;23457;51.966;8.230;2023-07-29T01:56:04;4.03;;;3.05;;
37609;SDS011;23457;51.966;8.230;2023-07-29T01:58:33;3.47;;;3.17;;
37609;SDS011;23457;51.966;8.230;2023-07-29T02:00:59;4.47;;;3.35;;
37609;SDS011;23457;51.966;8.230;2023-07-29T02:03:26;3.75;;;3.45;;
37609;SDS011;23457;51.966;8.230;2023-07-29T02:05:53;3.80;;;3.50;;
37609;SDS011;23457;51.966;8.230;2023-07-29T02:08:19;4.57;;;3.10;;
37609;SDS011;23457;51.966;8.230;2023-07-29T02:10:46;3.85;;;3.33;;
37609;SDS011;23457;51.966;8.230;2023-07-29T02:13:15;5.43;;;3.57;;
37609;SDS011;23457;51.966;8.230;2023-07-29T02:15:42;3.53;;;3.22;;
37609;SDS011;23457;51.966;8.230;2023-07-29T02:18:08;3.00;;;2.80;;
37609;SDS011;23457;51.966;8.230;2023-07-29T02:20:35;3.72;;;3.42;;
37609;SDS011;23457;51.966;8.230;2023-07-29T02:23:02;4.30;;;3.90;;
37609;SDS011;23457;51.966;8.230;2023-07-29T02:25:29;4.80;;;4.40;;
37609;SDS011;23457;51.966;8.230;2023-07-29T02:27:55;4.63;;;4.22;;
37609;SDS011;23457;51.966;8.230;2023-07-29T02:30:22;9.18;;;4.28;;
37609;SDS011;23457;51.966;8.230;2023-07-29T02:32:49;5.70;;;3.90;;
37609;SDS011;23457;51.966;8.230;2023-07-29T02:35:15;4.32;;;3.50;;
37609;SDS011;23457;51.966;8.230;2023-07-29T02:37:42;5.13;;;3.90;;
37609;SDS011;23457;51.966;8.230;2023-07-29T02:40:09;4.40;;;3.78;;
37609;SDS011;23457;51.966;8.230;2023-07-29T02:42:36;3.90;;;3.60;;
37609;SDS011;23457;51.966;8.230;2023-07-29T02:45:03;5.30;;;4.07;;
37609;SDS011;23457;51.966;8.230;2023-07-29T02:47:30;4.60;;;3.60;;
37609;SDS011;23457;51.966;8.230;2023-07-29T02:49:57;4.30;;;3.28;;
37609;SDS011;23457;51.966;8.230;2023-07-29T02:52:24;3.70;;;3.40;;
37609;SDS011;23457;51.966;8.230;2023-07-29T02:54:50;3.40;;;3.10;;
37609;SDS011;23457;51.966;8.230;2023-07-29T02:57:17;3.15;;;2.95;;
37609;SDS011;23457;51.966;8.230;2023-07-29T02:59:44;4.07;;;3.67;;
37609;SDS011;23457;51.966;8.230;2023-07-29T03:02:10;3.95;;;3.63;;
37609;SDS011;23457;51.966;8.230;2023-07-29T03:04:37;5.30;;;3.80;;
37609;SDS011;23457;51.966;8.230;2023-07-29T03:07:04;5.85;;;3.55;;
37609;SDS011;23457;51.966;8.230;2023-07-29T03:09:31;6.65;;;3.65;;
37609;SDS011;23457;51.966;8.230;2023-07-29T03:11:57;3.63;;;2.97;;
37609;SDS011;23457;51.966;8.230;2023-07-29T03:14:24;4.00;;;3.60;;
37609;SDS011;23457;51.966;8.230;2023-07-29T03:16:51;3.67;;;3.38;;
37609;SDS011;23457;51.966;8.230;2023-07-29T03:19:18;3.38;;;3.08;;
37609;SDS011;23457;51.966;8.230;2023-07-29T03:21:46;3.42;;;3.13;;
37609;SDS011;23457;51.966;8.230;2023-07-29T03:24:13;5.75;;;3.15;;
37609;SDS011;23457;51.966;8.230;2023-07-29T03:26:40;3.75;;;3.15;;
37609;SDS011;23457;51.966;8.230;2023-07-29T03:29:09;4.75;;;3.00;;
37609;SDS011;23457;51.966;8.230;2023-07-29T03:31:35;4.00;;;3.60;;
37609;SDS011;23457;51.966;8.230;2023-07-29T03:34:02;3.67;;;3.35;;
37609;SDS011;23457;51.966;8.230;2023-07-29T03:36:29;3.58;;;3.17;;
37609;SDS011;23457;51.966;8.230;2023-07-29T03:38:56;4.07;;;3.28;;
37609;SDS011;23457;51.966;8.230;2023-07-29T03:41:23;4.90;;;2.75;;
37609;SDS011;23457;51.966;8.230;2023-07-29T03:43:49;5.05;;;3.38;;
37609;SDS011;23457;51.966;8.230;2023-07-29T03:46:16;3.08;;;2.80;;
37609;SDS011;23457;51.966;8.230;2023-07-29T03:48:46;3.20;;;3.00;;
37609;SDS011;23457;51.966;8.230;2023-07-29T03:51:13;3.90;;;3.22;;
37609;SDS011;23457;51.966;8.230;2023-07-29T03:53:39;5.95;;;3.15;;
37609;SDS011;23457;51.966;8.230;2023-07-29T03:56:06;2.95;;;2.75;;
37609;SDS011;23457;51.966;8.230;2023-07-29T03:58:34;4.75;;;2.88;;
37609;SDS011;23457;51.966;8.230;2023-07-29T04:01:01;3.10;;;2.90;;
37609;SDS011;23457;51.966;8.230;2023-07-29T04:03:27;8.18;;;3.13;;
37609;SDS011;23457;51.966;8.230;2023-07-29T04:05:55;3.65;;;3.15;;
37609;SDS011;23457;51.966;8.230;2023-07-29T04:08:21;2.65;;;2.45;;
37609;SDS011;23457;51.966;8.230;2023-07-29T04:10:48;6.38;;;3.33;;
37609;SDS011;23457;51.966;8.230;2023-07-29T04:13:15;3.20;;;2.90;;
37609;SDS011;23457;51.966;8.230;2023-07-29T04:15:42;4.80;;;2.92;;
37609;SDS011;23457;51.966;8.230;2023-07-29T04:18:09;4.57;;;3.17;;
37609;SDS011;23457;51.966;8.230;2023-07-29T04:20:36;3.40;;;3.10;;
37609;SDS011;23457;51.966;8.230;2023-07-29T04:23:02;5.20;;;3.50;;
37609;SDS011;23457;51.966;8.230;2023-07-29T04:25:29;4.05;;;3.60;;
37609;SDS011;23457;51.966;8.230;2023-07-29T04:27:56;3.45;;;3.15;;
37609;SDS011;23457;51.966;8.230;2023-07-29T04:30:24;3.45;;;3.15;;
37609;SDS011;23457;51.966;8.230;2023-07-29T04:32:50;3.20;;;2.83;;
37609;SDS011;23457;51.966;8.230;2023-07-29T04:35:17;5.57;;;3.58;;
37609;SDS011;23457;51.966;8.230;2023-07-29T04:37:44;5.32;;;3.20;;
37609;SDS011;23457;51.966;8.230;2023-07-29T04:40:11;4.80;;;3.35;;
37609;SDS011;23457;51.966;8.230;2023-07-29T04:42:37;4.65;;;3.83;;
37609;SDS011;23457;51.966;8.230;2023-07-29T04:45:04;5.00;;;3.45;;
37609;SDS011;23457;51.966;8.230;2023-07-29T04:47:32;3.33;;;3.03;;
37609;SDS011;23457;51.966;8.230;2023-07-29T04:49:58;5.30;;;3.30;;
37609;SDS011;23457;51.966;8.230;2023-07-29T04:52:25;3.95;;;3.65;;
37609;SDS011;23457;51.966;8.230;2023-07-29T04:54:51;4.47;;;3.97;;
37609;SDS011;23457;51.966;8.230;2023-07-29T04:57:18;4.68;;;4.00;;
37609;SDS011;23457;51.966;8.230;2023-07-29T04:59:45;3.92;;;3.63;;
37609;SDS011;23457;51.966;8.230;2023-07-29T05:02:11;5.55;;;3.75;;
37609;SDS011;23457;51.966;8.230;2023-07-29T05:04:38;3.60;;;3.38;;
37609;SDS011;23457;51.966;8.230;2023-07-29T05:07:05;7.45;;;3.47;;
37609;SDS011;23457;51.966;8.230;2023-07-29T05:09:32;4.88;;;4.00;;
37609;SDS011;23457;51.966;8.230;2023-07-29T05:11:58;5.57;;;4.07;;
37609;SDS011;23457;51.966;8.230;2023-07-29T05:14:25;4.72;;;3.40;;
37609;SDS011;23457;51.966;8.230;2023-07-29T05:16:53;3.55;;;3.10;;
37609;SDS011;23457;51.966;8.230;2023-07-29T05:19:20;4.07;;;3.70;;
37609;SDS011;23457;51.966;8.230;2023-07-29T05:21:46;3.90;;;3.60;;
37609;SDS011;23457;51.966;8.230;2023-07-29T05:24:13;6.00;;;3.58;;
37609;SDS011;23457;51.966;8.230;2023-07-29T05:26:40;4.35;;;3.40;;
37609;SDS011;23457;51.966;8.230;2023-07-29T05:29:06;29.65;;;4.80;;
37609;SDS011;23457;51.966;8.230;2023-07-29T05:31:33;7.70;;;3.78;;
37609;SDS011;23457;51.966;8.230;2023-07-29T05:34:00;4.13;;;3.25;;
37609;SDS011;23457;51.966;8.230;2023-07-29T05:36:27;4.47;;;3.38;;
37609;SDS011;23457;51.966;8.230;2023-07-29T05:38:53;4.57;;;2.90;;
37609;SDS011;23457;51.966;8.230;2023-07-29T05:41:20;4.88;;;3.33;;
37609;SDS011;23457;51.966;8.230;2023-07-29T05:43:47;3.58;;;3.00;;
37609;SDS011;23457;51.966;8.230;2023-07-29T05:46:15;7.18;;;4.20;;
37609;SDS011;23457;51.966;8.230;2023-07-29T05:48:42;3.67;;;3.38;;
37609;SDS011;23457;51.966;8.230;2023-07-29T05:51:09;4.10;;;3.10;;
37609;SDS011;23457;51.966;8.230;2023-07-29T05:53:35;5.22;;;3.47;;
37609;SDS011;23457;51.966;8.230;2023-07-29T05:56:02;4.68;;;2.97;;
37609;SDS011;23457;51.966;8.230;2023-07-29T05:58:29;4.38;;;3.25;;
37609;SDS011;23457;51.966;8.230;2023-07-29T06:00:57;6.07;;;3.00;;
37609;SDS011;23457;51.966;8.230;2023-07-29T06:03:24;3.40;;;3.10;;
37609;SDS011;23457;51.966;8.230;2023-07-29T06:05:51;3.67;;;2.78;;
37609;SDS011;23457;51.966;8.230;2023-07-29T06:08:20;3.22;;;3.03;;
37609;SDS011;23457;51.966;8.230;2023-07-29T06:10:47;3.95;;;3.20;;
37609;SDS011;23457;51.966;8.230;2023-07-29T06:13:13;3.60;;;3.30;;
37609;SDS011;23457;51.966;8.230;2023-07-29T06:15:40;4.45;;;3.00;;
37609;SDS011;23457;51.966;8.230;2023-07-29T06:18:07;4.00;;;3.10;;
37609;SDS011;23457;51.966;8.230;2023-07-29T06:20:33;3.50;;;3.10;;
37609;SDS011;23457;51.966;8.230;2023-07-29T06:23:00;5.80;;;3.42;;
37609;SDS011;23457;51.966;8.230;2023-07-29T06:25:28;6.47;;;4.72;;
37609;SDS011;23457;51.966;8.230;2023-07-29T06:27:54;11.38;;;7.72;;
37609;SDS011;23457;51.966;8.230;2023-07-29T06:30:21;8.90;;;7.57;;
37609;SDS011;23457;51.966;8.230;2023-07-29T06:32:48;10.20;;;9.07;;
37609;SDS011;23457;51.966;8.230;2023-07-29T06:35:14;11.95;;;8.70;;
37609;SDS011;23457;51.966;8.230;2023-07-29T06:37:41;13.05;;;10.25;;
37609;SDS011;23457;51.966;8.230;2023-07-29T06:40:08;16.58;;;11.38;;
37609;SDS011;23457;51.966;8.230;2023-07-29T06:42:35;18.15;;;14.60;;
37609;SDS011;23457;51.966;8.230;2023-07-29T06:45:04;20.42;;;16.13;;
37609;SDS011;23457;51.966;8.230;2023-07-29T06:47:31;20.50;;;16.40;;
37609;SDS011;23457;51.966;8.230;2023-07-29T06:49:58;20.42;;;16.50;;
37609;SDS011;23457;51.966;8.230;2023-07-29T06:52:25;19.92;;;16.75;;
37609;SDS011;23457;51.966;8.230;2023-07-29T06:54:51;20.02;;;17.35;;
37609;SDS011;23457;51.966;8.230;2023-07-29T06:57:18;19.77;;;17.67;;
37609;SDS011;23457;51.966;8.230;2023-07-29T06:59:45;21.92;;;18.45;;
37609;SDS011;23457;51.966;8.230;2023-07-29T07:02:11;21.20;;;17.67;;
37609;SDS011;23457;51.966;8.230;2023-07-29T07:04:38;19.42;;;16.48;;
37609;SDS011;23457;51.966;8.230;2023-07-29T07:07:04;15.50;;;13.90;;
37609;SDS011;23457;51.966;8.230;2023-07-29T07:09:31;13.80;;;12.30;;
37609;SDS011;23457;51.966;8.230;2023-07-29T07:11:58;14.85;;;12.13;;
37609;SDS011;23457;51.966;8.230;2023-07-29T07:14:24;12.20;;;11.00;;
37609;SDS011;23457;51.966;8.230;2023-07-29T07:16:52;12.20;;;10.57;;
37609;SDS011;23457;51.966;8.230;2023-07-29T07:19:18;12.07;;;10.38;;
37609;SDS011;23457;51.966;8.230;2023-07-29T07:21:45;10.40;;;9.57;;
37609;SDS011;23457;51.966;8.230;2023-07-29T07:24:11;10.15;;;9.15;;
37609;SDS011;23457;51.966;8.230;2023-07-29T07:26:38;10.30;;;9.18;;
37609;SDS011;23457;51.966;8.230;2023-07-29T07:29:05;9.70;;;8.65;;
37609;SDS011;23457;51.966;8.230;2023-07-29T07:31:35;10.18;;;8.32;;
37609;SDS011;23457;51.966;8.230;2023-07-29T07:34:02;8.27;;;7.43;;
37609;SDS011;23457;51.966;8.230;2023-07-29T07:36:29;7.00;;;6.35;;
37609;SDS011;23457;51.966;8.230;2023-07-29T07:38:56;7.15;;;6.38;;
37609;SDS011;23457;51.966;8.230;2023-07-29T07:41:23;6.80;;;5.82;;
37609;SDS011;23457;51.966;8.230;2023-07-29T07:43:50;5.72;;;5.22;;
37609;SDS011;23457;51.966;8.230;2023-07-29T07:46:16;5.47;;;4.97;;
37609;SDS011;23457;51.966;8.230;2023-07-29T07:48:43;5.20;;;4.30;;
37609;SDS011;23457;51.966;8.230;2023-07-29T07:51:13;7.32;;;3.75;;
37609;SDS011;23457;51.966;8.230;2023-07-29T07:53:40;6.65;;;3.58;;
37609;SDS011;23457;51.966;8.230;2023-07-29T07:56:06;4.72;;;3.42;;
37609;SDS011;23457;51.966;8.230;2023-07-29T07:58:33;4.85;;;3.70;;
37609;SDS011;23457;51.966;8.230;2023-07-29T08:01:05;6.43;;;3.53;;
37609;SDS011;23457;51.966;8.230;2023-07-29T08:03:34;3.88;;;3.50;;
37609;SDS011;23457;51.966;8.230;2023-07-29T08:06:01;6.20;;;3.78;;
37609;SDS011;23457;51.966;8.230;2023-07-29T08:08:28;5.70;;;4.05;;
37609;SDS011;23457;51.966;8.230;2023-07-29T08:10:56;4.70;;;3.80;;
37609;SDS011;23457;51.966;8.230;2023-07-29T08:13:24;4.85;;;3.33;;
37609;SDS011;23457;51.966;8.230;2023-07-29T08:15:51;5.07;;;3.53;;
37609;SDS011;23457;51.966;8.230;2023-07-29T08:18:19;5.57;;;3.33;;
37609;SDS011;23457;51.966;8.230;2023-07-29T08:20:56;3.38;;;2.50;;
37609;SDS011;23457;51.966;8.230;2023-07-29T08:23:29;3.53;;;1.80;;
37609;SDS011;23457;51.966;8.230;2023-07-29T08:26:01;2.25;;;1.38;;
37609;SDS011;23457;51.966;8.230;2023-07-29T08:28:30;1.65;;;1.10;;
37609;SDS011;23457;51.966;8.230;2023-07-29T08:30:58;1.67;;;1.20;;
37609;SDS011;23457;51.966;8.230;2023-07-29T08:33:25;1.55;;;1.38;;
37609;SDS011;23457;51.966;8.230;2023-07-29T08:35:53;2.97;;;1.15;;
37609;SDS011;23457;51.966;8.230;2023-07-29T08:38:20;2.25;;;1.00;;
37609;SDS011;23457;51.966;8.230;2023-07-29T08:43:32;1.60;;;1.10;;
37609;SDS011;23457;51.966;8.230;2023-07-29T08:46:00;1.38;;;1.23;;
37609;SDS011;23457;51.966;8.230;2023-07-29T08:48:39;1.20;;;1.10;;
37609;SDS011;23457;51.966;8.230;2023-07-29T08:51:08;0.98;;;0.98;;
37609;SDS011;23457;51.966;8.230;2023-07-29T08:53:35;2.17;;;1.30;;
37609;SDS011;23457;51.966;8.230;2023-07-29T08:56:03;2.17;;;1.20;;
37609;SDS011;23457;51.966;8.230;2023-07-29T08:58:31;2.10;;;1.02;;
37609;SDS011;23457;51.966;8.230;2023-07-29T09:00:59;1.60;;;1.10;;
37609;SDS011;23457;51.966;8.230;2023-07-29T09:03:26;1.23;;;0.98;;
37609;SDS011;23457;51.966;8.230;2023-07-29T09:05:52;3.25;;;1.20;;
37609;SDS011;23457;51.966;8.230;2023-07-29T09:08:20;1.45;;;0.95;;
37609;SDS011;23457;51.966;8.230;2023-07-29T09:10:48;1.27;;;1.15;;
37609;SDS011;23457;51.966;8.230;2023-07-29T09:13:15;1.58;;;0.90;;
37609;SDS011;23457;51.966;8.230;2023-07-29T09:15:41;1.13;;;1.00;;
37609;SDS011;23457;51.966;8.230;2023-07-29T09:18:09;1.52;;;1.33;;
37609;SDS011;23457;51.966;8.230;2023-07-29T09:20:37;1.38;;;1.10;;
37609;SDS011;23457;51.966;8.230;2023-07-29T09:23:06;1.63;;;1.52;;
37609;SDS011;23457;51.966;8.230;2023-07-29T09:25:35;1.20;;;1.10;;
37609;SDS011;23457;51.966;8.230;2023-07-29T09:28:07;2.00;;;1.23;;
37609;SDS011;23457;51.966;8.230;2023-07-29T09:30:41;2.40;;;1.20;;
37609;SDS011;23457;51.966;8.230;2023-07-29T09:33:09;1.40;;;1.30;;
37609;SDS011;23457;51.966;8.230;2023-07-29T09:35:37;1.35;;;1.25;;
37609;SDS011;23457;51.966;8.230;2023-07-29T09:38:04;1.60;;;1.50;;
37609;SDS011;23457;51.966;8.230;2023-07-29T09:40:36;1.95;;;1.50;;
37609;SDS011;23457;51.966;8.230;2023-07-29T09:43:04;6.57;;;1.15;;
37609;SDS011;23457;51.966;8.230;2023-07-29T09:45:33;2.42;;;0.93;;
37609;SDS011;23457;51.966;8.230;2023-07-29T09:48:00;1.40;;;1.30;;
37609;SDS011;23457;51.966;8.230;2023-07-29T09:50:29;1.95;;;1.02;;
37609;SDS011;23457;51.966;8.230;2023-07-29T09:52:56;1.00;;;0.90;;
37609;SDS011;23457;51.966;8.230;2023-07-29T09:55:27;1.33;;;0.90;;
37609;SDS011;23457;51.966;8.230;2023-07-29T09:57:58;2.90;;;0.90;;
37609;SDS011;23457;51.966;8.230;2023-07-29T10:00:28;2.08;;;0.70;;
37609;SDS011;23457;51.966;8.230;2023-07-29T10:02:55;1.42;;;0.73;;
37609;SDS011;23457;51.966;8.230;2023-07-29T10:05:22;0.73;;;0.65;;
37609;SDS011;23457;51.966;8.230;2023-07-29T10:07:52;0.88;;;0.70;;
37609;SDS011;23457;51.966;8.230;2023-07-29T10:10:20;1.60;;;0.80;;
37609;SDS011;23457;51.966;8.230;2023-07-29T10:12:47;0.82;;;0.60;;
37609;SDS011;23457;51.966;8.230;2023-07-29T10:15:14;2.58;;;0.70;;
37609;SDS011;23457;51.966;8.230;2023-07-29T10:17:41;0.88;;;0.80;;
37609;SDS011;23457;51.966;8.230;2023-07-29T10:20:09;2.17;;;0.80;;
37609;SDS011;23457;51.966;8.230;2023-07-29T10:22:37;2.33;;;0.90;;
37609;SDS011;23457;51.966;8.230;2023-07-29T10:25:10;1.45;;;1.00;;
37609;SDS011;23457;51.966;8.230;2023-07-29T10:27:43;2.53;;;0.80;;
37609;SDS011;23457;51.966;8.230;2023-07-29T10:30:13;0.70;;;0.70;;
37609;SDS011;23457;51.966;8.230;2023-07-29T10:32:44;3.03;;;0.68;;
37609;SDS011;23457;51.966;8.230;2023-07-29T10:35:12;2.15;;;0.80;;
37609;SDS011;23457;51.966;8.230;2023-07-29T10:37:39;0.88;;;0.63;;
37609;SDS011;23457;51.966;8.230;2023-07-29T10:40:09;1.65;;;0.63;;
37609;SDS011;23457;51.966;8.230;2023-07-29T10:42:37;5.70;;;1.10;;
37609;SDS011;23457;51.966;8.230;2023-07-29T10:45:17;0.70;;;0.63;;
37609;SDS011;23457;51.966;8.230;2023-07-29T10:47:45;0.68;;;0.68;;
37609;SDS011;23457;51.966;8.230;2023-07-29T10:50:19;2.17;;;0.80;;
37609;SDS011;23457;51.966;8.230;2023-07-29T10:52:51;2.00;;;0.80;;
37609;SDS011;23457;51.966;8.230;2023-07-29T10:55:24;0.75;;;0.63;;
37609;SDS011;23457;51.966;8.230;2023-07-29T10:57:52;4.40;;;0.93;;
37609;SDS011;23457;51.966;8.230;2023-07-29T11:00:30;0.90;;;0.77;;
37609;SDS011;23457;51.966;8.230;2023-07-29T11:02:59;0.80;;;0.80;;
37609;SDS011;23457;51.966;8.230;2023-07-29T11:05:41;3.70;;;0.80;;
37609;SDS011;23457;51.966;8.230;2023-07-29T11:08:19;1.08;;;0.85;;
37609;SDS011;23457;51.966;8.230;2023-07-29T11:11:08;0.82;;;0.70;;
37609;SDS011;23457;51.966;8.230;2023-07-29T11:13:38;2.50;;;0.85;;
37609;SDS011;23457;51.966;8.230;2023-07-29T11:16:05;1.13;;;0.70;;
37609;SDS011;23457;51.966;8.230;2023-07-29T11:18:33;1.23;;;0.80;;
37609;SDS011;23457;51.966;8.230;2023-07-29T11:21:04;2.38;;;0.98;;
37609;SDS011;23457;51.966;8.230;2023-07-29T11:23:35;4.80;;;0.90;;
37609;SDS011;23457;51.966;8.230;2023-07-29T11:26:02;2.78;;;1.08;;
37609;SDS011;23457;51.966;8.230;2023-07-29T11:28:30;2.03;;;0.93;;
37609;SDS011;23457;51.966;8.230;2023-07-29T11:30:57;1.73;;;0.90;;
37609;SDS011;23457;51.966;8.230;2023-07-29T11:33:25;2.42;;;1.00;;
37609;SDS011;23457;51.966;8.230;2023-07-29T11:35:54;1.17;;;0.98;;
37609;SDS011;23457;51.966;8.230;2023-07-29T11:38:22;2.65;;;1.10;;
37609;SDS011;23457;51.966;8.230;2023-07-29T11:41:22;1.65;;;1.20;;
37609;SDS011;23457;51.966;8.230;2023-07-29T11:43:45;1.42;;;0.90;;
37609;SDS011;23457;51.966;8.230;2023-07-29T11:46:12;1.10;;;1.00;;
37609;SDS011;23457;51.966;8.230;2023-07-29T11:48:39;1.55;;;1.17;;
37609;SDS011;23457;51.966;8.230;2023-07-29T11:51:05;1.50;;;1.00;;
37609;SDS011;23457;51.966;8.230;2023-07-29T11:53:33;3.80;;;1.45;;
37609;SDS011;23457;51.966;8.230;2023-07-29T11:56:00;4.63;;;1.45;;
37609;SDS011;23457;51.966;8.230;2023-07-29T11:58:26;1.42;;;1.33;;
37609;SDS011;23457;51.966;8.230;2023-07-29T12:00:53;1.60;;;1.50;;
37609;SDS011;23457;51.966;8.230;2023-07-29T12:03:20;2.80;;;1.52;;
37609;SDS011;23457;51.966;8.230;2023-07-29T12:05:48;1.48;;;1.38;;
37609;SDS011;23457;51.966;8.230;2023-07-29T12:08:15;2.03;;;1.30;;
37609;SDS011;23457;51.966;8.230;2023-07-29T12:10:42;1.90;;;1.20;;
37609;SDS011;23457;51.966;8.230;2023-07-29T12:13:09;2.83;;;1.50;;
37609;SDS011;23457;51.966;8.230;2023-07-29T12:15:37;1.70;;;1.30;;
37609;SDS011;23457;51.966;8.230;2023-07-29T12:20:31;2.67;;;0.98;;
37609;SDS011;23457;51.966;8.230;2023-07-29T12:22:59;0.90;;;0.80;;
37609;SDS011;23457;51.966;8.230;2023-07-29T12:25:29;1.42;;;0.93;;
37609;SDS011;23457;51.966;8.230;2023-07-29T12:27:56;1.60;;;0.80;;
37609;SDS011;23457;51.966;8.230;2023-07-29T12:30:27;1.70;;;0.90;;
37609;SDS011;23457;51.966;8.230;2023-07-29T12:32:54;1.55;;;0.90;;
37609;SDS011;23457;51.966;8.230;2023-07-29T12:35:21;0.80;;;0.80;;
37609;SDS011;23457;51.966;8.230;2023-07-29T12:37:57;0.60;;;0.60;;
37609;SDS011;23457;51.966;8.230;2023-07-29T12:40:25;1.02;;;0.80;;
37609;SDS011;23457;51.966;8.230;2023-07-29T12:42:52;0.95;;;0.90;;
37609;SDS011;23457;51.966;8.230;2023-07-29T12:45:19;1.98;;;0.90;;
37609;SDS011;23457;51.966;8.230;2023-07-29T12:47:48;3.97;;;0.93;;
37609;SDS011;23457;51.966;8.230;2023-07-29T12:50:16;3.53;;;0.80;;
37609;SDS011;23457;51.966;8.230;2023-07-29T12:52:42;1.48;;;1.00;;
37609;SDS011;23457;51.966;8.230;2023-07-29T12:55:09;1.75;;;0.90;;
37609;SDS011;23457;51.966;8.230;2023-07-29T12:57:40;0.73;;;0.73;;
37609;SDS011;23457;51.966;8.230;2023-07-29T13:00:09;6.32;;;0.85;;
37609;SDS011;23457;51.966;8.230;2023-07-29T13:02:37;2.58;;;1.02;;
37609;SDS011;23457;51.966;8.230;2023-07-29T13:05:04;1.02;;;0.73;;
37609;SDS011;23457;51.966;8.230;2023-07-29T13:07:34;1.05;;;0.82;;
37609;SDS011;23457;51.966;8.230;2023-07-29T13:10:01;1.10;;;1.00;;
37609;SDS011;23457;51.966;8.230;2023-07-29T13:12:28;1.88;;;1.10;;
37609;SDS011;23457;51.966;8.230;2023-07-29T13:14:54;1.20;;;0.93;;
37609;SDS011;23457;51.966;8.230;2023-07-29T13:17:21;2.67;;;1.00;;
37609;SDS011;23457;51.966;8.230;2023-07-29T13:19:49;1.17;;;0.90;;
37609;SDS011;23457;51.966;8.230;2023-07-29T13:22:15;1.40;;;1.30;;
37609;SDS011;23457;51.966;8.230;2023-07-29T13:24:42;2.45;;;1.30;;
37609;SDS011;23457;51.966;8.230;2023-07-29T13:27:09;1.10;;;0.85;;
37609;SDS011;23457;51.966;8.230;2023-07-29T13:29:36;2.22;;;1.50;;
37609;SDS011;23457;51.966;8.230;2023-07-29T13:32:02;3.63;;;1.90;;
37609;SDS011;23457;51.966;8.230;2023-07-29T13:34:29;4.35;;;1.70;;
37609;SDS011;23457;51.966;8.230;2023-07-29T13:36:58;1.50;;;1.35;;
37609;SDS011;23457;51.966;8.230;2023-07-29T13:39:25;2.63;;;1.23;;
37609;SDS011;23457;51.966;8.230;2023-07-29T13:41:51;1.70;;;1.20;;
37609;SDS011;23457;51.966;8.230;2023-07-29T13:44:18;1.20;;;1.10;;
37609;SDS011;23457;51.966;8.230;2023-07-29T13:46:44;4.10;;;1.10;;
37609;SDS011;23457;51.966;8.230;2023-07-29T13:49:11;1.00;;;1.00;;
37609;SDS011;23457;51.966;8.230;2023-07-29T13:51:38;2.10;;;1.02;;
37609;SDS011;23457;51.966;8.230;2023-07-29T13:54:04;1.50;;;1.25;;
37609;SDS011;23457;51.966;8.230;2023-07-29T13:56:31;2.45;;;1.20;;
37609;SDS011;23457;51.966;8.230;2023-07-29T13:58:58;1.20;;;1.10;;
37609;SDS011;23457;51.966;8.230;2023-07-29T14:01:24;7.97;;;1.60;;
37609;SDS011;23457;51.966;8.230;2023-07-29T14:03:51;1.20;;;1.10;;
37609;SDS011;23457;51.966;8.230;2023-07-29T14:06:18;1.10;;;1.00;;
37609;SDS011;23457;51.966;8.230;2023-07-29T14:08:51;1.20;;;1.10;;
37609;SDS011;23457;51.966;8.230;2023-07-29T14:11:17;2.15;;;1.17;;
37609;SDS011;23457;51.966;8.230;2023-07-29T14:13:44;2.90;;;1.33;;
37609;SDS011;23457;51.966;8.230;2023-07-29T14:16:10;3.97;;;1.33;;
37609;SDS011;23457;51.966;8.230;2023-07-29T14:18:37;1.80;;;1.40;;
37609;SDS011;23457;51.966;8.230;2023-07-29T14:21:04;1.55;;;1.45;;
37609;SDS011;23457;51.966;8.230;2023-07-29T14:23:30;2.45;;;1.85;;
37609;SDS011;23457;51.966;8.230;2023-07-29T14:25:59;1.60;;;1.50;;
37609;SDS011;23457;51.966;8.230;2023-07-29T14:28:25;3.15;;;1.70;;
37609;SDS011;23457;51.966;8.230;2023-07-29T14:30:52;1.75;;;1.63;;
37609;SDS011;23457;51.966;8.230;2023-07-29T14:33:19;3.17;;;1.60;;
37609;SDS011;23457;51.966;8.230;2023-07-29T14:35:45;4.70;;;1.88;;
37609;SDS011;23457;51.966;8.230;2023-07-29T14:38:12;2.08;;;1.88;;
37609;SDS011;23457;51.966;8.230;2023-07-29T14:40:38;3.67;;;1.75;;
37609;SDS011;23457;51.966;8.230;2023-07-29T14:43:05;1.83;;;1.55;;
37609;SDS011;23457;51.966;8.230;2023-07-29T14:45:32;3.40;;;1.95;;
37609;SDS011;23457;51.966;8.230;2023-07-29T14:47:58;2.60;;;1.83;;
37609;SDS011;23457;51.966;8.230;2023-07-29T14:50:25;2.42;;;1.88;;
37609;SDS011;23457;51.966;8.230;2023-07-29T14:52:52;2.22;;;1.98;;
37609;SDS011;23457;51.966;8.230;2023-07-29T14:55:18;2.22;;;2.03;;
37609;SDS011;23457;51.966;8.230;2023-07-29T14:57:45;5.97;;;2.17;;
37609;SDS011;23457;51.966;8.230;2023-07-29T15:00:15;1.55;;;1.17;;
37609;SDS011;23457;51.966;8.230;2023-07-29T15:02:41;1.67;;;1.38;;